地図

経路データ

SID SEASON NUMBER BASIN SUBBASIN NAME ISO_TIME NATURE LAT LON WMO_WIND WMO_PRES WMO_AGENCY TRACK_TYPE DIST2LAND LANDFALL IFLAG USA_AGENCY USA_ATCF_ID USA_LAT USA_LON USA_RECORD USA_STATUS USA_WIND USA_PRES USA_SSHS USA_R34_NE USA_R34_SE USA_R34_SW USA_R34_NW USA_R50_NE USA_R50_SE USA_R50_SW USA_R50_NW USA_R64_NE USA_R64_SE USA_R64_SW USA_R64_NW USA_POCI USA_ROCI USA_RMW USA_EYE TOKYO_LAT TOKYO_LON TOKYO_GRADE TOKYO_WIND TOKYO_PRES TOKYO_R50_DIR TOKYO_R50_LONG TOKYO_R50_SHORT TOKYO_R30_DIR TOKYO_R30_LONG TOKYO_R30_SHORT TOKYO_LAND CMA_LAT CMA_LON CMA_CAT CMA_WIND CMA_PRES HKO_LAT HKO_LON HKO_CAT HKO_WIND HKO_PRES NEWDELHI_LAT NEWDELHI_LON NEWDELHI_GRADE NEWDELHI_WIND NEWDELHI_PRES NEWDELHI_CI NEWDELHI_DP NEWDELHI_POCI REUNION_LAT REUNION_LON REUNION_TYPE REUNION_WIND REUNION_PRES REUNION_TNUM REUNION_CI REUNION_RMW REUNION_R34_NE REUNION_R34_SE REUNION_R34_SW REUNION_R34_NW REUNION_R50_NE REUNION_R50_SE REUNION_R50_SW REUNION_R50_NW REUNION_R64_NE REUNION_R64_SE REUNION_R64_SW REUNION_R64_NW BOM_LAT BOM_LON BOM_TYPE BOM_WIND BOM_PRES BOM_TNUM BOM_CI BOM_RMW BOM_R34_NE BOM_R34_SE BOM_R34_SW BOM_R34_NW BOM_R50_NE BOM_R50_SE BOM_R50_SW BOM_R50_NW BOM_R64_NE BOM_R64_SE BOM_R64_SW BOM_R64_NW BOM_ROCI BOM_POCI BOM_EYE BOM_POS_METHOD BOM_PRES_METHOD NADI_LAT NADI_LON NADI_CAT NADI_WIND NADI_PRES WELLINGTON_LAT WELLINGTON_LON WELLINGTON_WIND WELLINGTON_PRES DS824_LAT DS824_LON DS824_STAGE DS824_WIND DS824_PRES TD9636_LAT TD9636_LON TD9636_STAGE TD9636_WIND TD9636_PRES TD9635_LAT TD9635_LON TD9635_WIND TD9635_PRES TD9635_ROCI NEUMANN_LAT NEUMANN_LON NEUMANN_CLASS NEUMANN_WIND NEUMANN_PRES MLC_LAT MLC_LON MLC_CLASS MLC_WIND MLC_PRES USA_GUST BOM_GUST BOM_GUST_PER REUNION_GUST REUNION_GUST_PER USA_SEAHGT USA_SEARAD_NE USA_SEARAD_SE USA_SEARAD_SW USA_SEARAD_NW STORM_SPEED STORM_DIR
1930311N09148 1930 53 WP MM NOT_NAMED 1930-11-07 10:00:00 NR 8.70000 147.600 main 1210 1210 __________O___ -1 8.70000 147.600 7 4 339
1930311N09148 1930 53 WP MM NOT_NAMED 1930-11-07 12:00:00 NR 8.81713 147.571 main 1221 1221 __________P___ -1 8.81713 147.571 7 4 347
1930311N09148 1930 53 WP MM NOT_NAMED 1930-11-07 15:00:00 NR 8.99890 147.526 main 1243 1243 __________P___ -1 8.99890 147.526 7 4 345
1930311N09148 1930 53 WP MM NOT_NAMED 1930-11-07 18:00:00 NR 9.19629 147.477 main 1266 1266 __________P___ -1 9.19629 147.477 7 4 346
1930311N09148 1930 53 WP MM NOT_NAMED 1930-11-07 21:00:00 NR 9.41869 147.421 main 1288 1288 __________P___ -1 9.41869 147.421 7 5 345
1930311N09148 1930 53 WP MM NOT_NAMED 1930-11-07 22:00:00 NR 9.50000 147.400 main 1299 1299 __________O___ -1 9.50000 147.400 7 5 345
1930311N09148 1930 53 WP MM NOT_NAMED 1930-11-08 00:00:00 NR 9.67454 147.356 main 1322 1322 __________P___ -1 9.67454 147.356 7 6 346
1930311N09148 1930 53 WP MM NOT_NAMED 1930-11-08 03:00:00 NR 9.96153 147.283 main 1355 1355 __________P___ -1 9.96153 147.283 7 6 346
1930311N09148 1930 53 WP MM NOT_NAMED 1930-11-08 06:00:00 NR 10.2704 147.205 main 1389 1389 __________P___ -1 10.2704 147.205 7 7 346
1930311N09148 1930 53 WP MM NOT_NAMED 1930-11-08 09:00:00 NR 10.5917 147.126 main 1423 1423 __________P___ -1 10.5917 147.126 7 7 346
1930311N09148 1930 53 WP MM NOT_NAMED 1930-11-08 10:00:00 NR 10.7000 147.100 main 1434 1434 __________O___ -1 10.7000 147.100 7 7 346
1930311N09148 1930 53 WP MM NOT_NAMED 1930-11-08 12:00:00 NR 10.9136 147.045 main 1456 1456 __________P___ -1 10.9136 147.045 7 7 345
1930311N09148 1930 53 WP MM NOT_NAMED 1930-11-08 15:00:00 NR 11.2403 146.962 main 1490 1501 __________P___ -1 11.2403 146.962 7 7 346
1930311N09148 1930 53 WP MM NOT_NAMED 1930-11-08 18:00:00 NR 11.5691 146.884 main 1535 1535 __________P___ -1 11.5691 146.884 7 7 348
1930311N09148 1930 53 WP MM NOT_NAMED 1930-11-08 21:00:00 NR 11.8938 146.818 main 1568 1568 __________P___ -1 11.8938 146.818 7 7 349
1930311N09148 1930 53 WP MM NOT_NAMED 1930-11-08 22:00:00 NR 12.0000 146.800 main 1579 1579 __________O___ -1 12.0000 146.800 7 6 353
1930311N09148 1930 53 WP MM NOT_NAMED 1930-11-09 00:00:00 NR 12.2057 146.774 main 1602 1602 __________P___ -1 12.2057 146.774 7 6 353
1930311N09148 1930 53 WP MM NOT_NAMED 1930-11-09 03:00:00 NR 12.5079 146.749 main 1635 1635 __________P___ -1 12.5079 146.749 7 6 356
1930311N09148 1930 53 WP MM NOT_NAMED 1930-11-09 06:00:00 NR 12.8054 146.730 main 1669 1669 __________P___ -1 12.8054 146.730 7 6 356
1930311N09148 1930 53 WP MM NOT_NAMED 1930-11-09 09:00:00 NR 13.1012 146.709 main 1702 1702 __________P___ -1 13.1012 146.709 7 6 356
1930311N09148 1930 53 WP MM NOT_NAMED 1930-11-09 10:00:00 NR 13.2000 146.700 main 1714 1714 __________O___ -1 13.2000 146.700 7 6 353
1930311N09148 1930 53 WP MM NOT_NAMED 1930-11-09 12:00:00 NR 13.4000 146.670 main 1736 1736 __________P___ -1 13.4000 146.670 7 6 351
1930311N09148 1930 53 WP MM NOT_NAMED 1930-11-09 15:00:00 NR 13.7000 146.618 main 1770 1770 __________P___ -1 13.7000 146.618 7 6 350
1930311N09148 1930 53 WP MM NOT_NAMED 1930-11-09 18:00:00 NR 14.0000 146.564 main 1803 1803 __________P___ -1 14.0000 146.564 7 6 351
1930311N09148 1930 53 WP MM NOT_NAMED 1930-11-09 21:00:00 NR 14.3000 146.515 main 1837 1837 __________P___ -1 14.3000 146.515 7 6 352
1930311N09148 1930 53 WP MM NOT_NAMED 1930-11-09 22:00:00 NR 14.4000 146.500 main 1848 1848 __________O___ -1 14.4000 146.500 7 6 355
1930311N09148 1930 53 WP MM NOT_NAMED 1930-11-10 00:00:00 NR 14.5947 146.478 main 1870 1870 __________P___ -1 14.5947 146.478 7 6 356
1930311N09148 1930 53 WP MM NOT_NAMED 1930-11-10 03:00:00 NR 14.8868 146.450 main 1904 1904 __________P___ -1 14.8868 146.450 7 6 356
1930311N09148 1930 53 WP MM NOT_NAMED 1930-11-10 06:00:00 NR 15.1842 146.428 main 1938 1938 __________P___ -1 15.1842 146.428 7 6 356
1930311N09148 1930 53 WP MM NOT_NAMED 1930-11-10 09:00:00 NR 15.4933 146.407 main 1971 1971 __________P___ -1 15.4933 146.407 7 6 0
1930311N09148 1930 53 WP MM NOT_NAMED 1930-11-10 10:00:00 NR 15.6000 146.400 main 1982 1982 __________O___ -1 15.6000 146.400 3 7 0
1930311N09148 1930 53 WP MM NOT_NAMED 1930-11-10 12:00:00 NR 15.8272 146.383 main 2005 2005 __________P___ -1 15.8272 146.383 3 7 357
1930311N09148 1930 53 WP MM NOT_NAMED 1930-11-10 15:00:00 NR 16.1806 146.358 main 2050 2050 __________P___ -1 16.1806 146.358 3 7 357
1930311N09148 1930 53 WP MM NOT_NAMED 1930-11-10 18:00:00 NR 16.5383 146.333 main 2083 2094 __________P___ -1 16.5383 146.333 3 7 357
1930311N09148 1930 53 WP MM NOT_NAMED 1930-11-10 21:00:00 NR 16.8876 146.308 main 2108 2097 __________P___ -1 16.8876 146.308 3 7 356
1930311N09148 1930 53 WP MM NOT_NAMED 1930-11-10 22:00:00 NR 17.0000 146.300 main 2097 2076 __________O___ -1 17.0000 146.300 4 7 353
1930311N09148 1930 53 WP MM NOT_NAMED 1930-11-11 00:00:00 NR 17.2114 146.278 main 2076 2041 __________P___ -1 17.2114 146.278 4 6 354
1930311N09148 1930 53 WP MM NOT_NAMED 1930-11-11 03:00:00 NR 17.5159 146.245 main 2041 2008 __________P___ -1 17.5159 146.245 4 6 354
1930311N09148 1930 53 WP MM NOT_NAMED 1930-11-11 06:00:00 NR 17.8109 146.218 main 2008 1976 __________P___ -1 17.8109 146.218 4 6 356
1930311N09148 1930 53 WP MM NOT_NAMED 1930-11-11 09:00:00 NR 18.1025 146.202 main 1976 1966 __________P___ -1 18.1025 146.202 4 6 357
1930311N09148 1930 53 WP MM NOT_NAMED 1930-11-11 10:00:00 NR 18.2000 146.200 main 1966 1944 __________O___ -1 18.2000 146.200 7 6 355
1930311N09148 1930 53 WP MM NOT_NAMED 1930-11-11 12:00:00 NR 18.3947 146.200 main 1944 1912 __________P___ -1 18.3947 146.200 7 6 0
1930311N09148 1930 53 WP MM NOT_NAMED 1930-11-11 15:00:00 NR 18.6868 146.213 main 1912 1880 __________P___ -1 18.6868 146.213 7 6 4
1930311N09148 1930 53 WP MM NOT_NAMED 1930-11-11 18:00:00 NR 18.9842 146.240 main 1880 1852 __________P___ -1 18.9842 146.240 7 6 6
1930311N09148 1930 53 WP MM NOT_NAMED 1930-11-11 21:00:00 NR 19.2933 146.283 main 1852 1841 __________P___ -1 19.2933 146.283 7 6 7
1930311N09148 1930 53 WP MM NOT_NAMED 1930-11-11 22:00:00 NR 19.4000 146.300 main 1841 1820 __________O___ -1 19.4000 146.300 7 7 7
1930311N09148 1930 53 WP MM NOT_NAMED 1930-11-12 00:00:00 NR 19.6193 146.328 main 1820 1781 __________P___ -1 19.6193 146.328 7 7 8
1930311N09148 1930 53 WP MM NOT_NAMED 1930-11-12 03:00:00 NR 19.9607 146.383 main 1781 1750 __________P___ -1 19.9607 146.383 7 7 10
1930311N09148 1930 53 WP MM NOT_NAMED 1930-11-12 06:00:00 NR 20.3145 146.458 main 1753 1715 __________P___ -1 20.3145 146.458 7 7 13
1930311N09148 1930 53 WP MM NOT_NAMED 1930-11-12 09:00:00 NR 20.6775 146.559 main 1715 1705 __________P___ -1 20.6775 146.559 7 8 15
1930311N09148 1930 53 WP MM NOT_NAMED 1930-11-12 10:00:00 NR 20.8000 146.600 main 1705 1688 __________O___ -1 20.8000 146.600 7 8 19
1930311N09148 1930 53 WP MM NOT_NAMED 1930-11-12 12:00:00 NR 21.0467 146.693 main 1688 1650 __________P___ -1 21.0467 146.693 7 8 21
1930311N09148 1930 53 WP MM NOT_NAMED 1930-11-12 15:00:00 NR 21.4201 146.855 main 1654 1617 __________P___ -1 21.4201 146.855 7 8 23
1930311N09148 1930 53 WP MM NOT_NAMED 1930-11-12 18:00:00 NR 21.7963 147.038 main 1617 1585 __________P___ -1 21.7963 147.038 7 8 25
1930311N09148 1930 53 WP MM NOT_NAMED 1930-11-12 21:00:00 NR 22.1740 147.234 main 1585 1579 __________P___ -1 22.1740 147.234 7 8 26
1930311N09148 1930 53 WP MM NOT_NAMED 1930-11-12 22:00:00 NR 22.3000 147.300 main 1579 __________O___ -1 22.3000 147.300 7 8 23

デジタル台風データ・検索

IBTrACS Databaseについて

本データベースは、米国NOAAが公開する1842年以降の世界の熱帯低気圧のベストトラックデータアーカイブInternational Best Track Archive for Climate Stewardship (IBTrACS)を、ウェブで閲覧しやすい形式に変換したものです。

最終更新日:2021-12-08